createdAt,value
2018-09-23T00:00:39.835Z,994.21
2018-09-23T00:01:39.790Z,994.18
2018-09-23T00:02:39.777Z,994.09
2018-09-23T00:03:39.783Z,994.12
2018-09-23T00:04:39.757Z,994.09
2018-09-23T00:05:39.747Z,994.13
2018-09-23T00:06:39.767Z,994.10
2018-09-23T00:07:39.726Z,994.08
2018-09-23T00:08:39.724Z,994.07
2018-09-23T00:09:39.700Z,993.97
2018-09-23T00:10:39.701Z,993.93
2018-09-23T00:11:39.686Z,993.95
2018-09-23T00:12:39.693Z,993.92
2018-09-23T00:13:39.680Z,993.93
2018-09-23T00:14:39.648Z,993.93
2018-09-23T00:15:39.634Z,993.87
2018-09-23T00:16:39.624Z,993.78
2018-09-23T00:17:39.613Z,993.73
2018-09-23T00:18:39.627Z,993.70
2018-09-23T00:19:39.609Z,993.72
2018-09-23T00:20:39.581Z,993.62
2018-09-23T00:21:39.570Z,993.56
2018-09-23T00:22:39.564Z,993.55
2018-09-23T00:23:39.548Z,993.55
2018-09-23T00:24:39.582Z,993.54
2018-09-23T00:25:39.530Z,993.50
2018-09-23T00:26:39.517Z,993.51
2018-09-23T00:27:39.505Z,993.48
2018-09-23T00:28:39.497Z,993.52
2018-09-23T00:29:39.501Z,993.44
2018-09-23T00:30:39.504Z,993.41
2018-09-23T00:31:39.463Z,993.39
2018-09-23T00:32:39.451Z,993.42
2018-09-23T00:33:39.445Z,993.33
2018-09-23T00:34:39.449Z,993.29
2018-09-23T00:35:39.424Z,993.29
2018-09-23T00:36:39.435Z,993.27
2018-09-23T00:37:39.398Z,993.28
2018-09-23T00:38:39.397Z,993.35
2018-09-23T00:39:39.394Z,993.32
2018-09-23T00:40:39.372Z,993.36
2018-09-23T00:41:39.400Z,993.32
2018-09-23T00:42:39.384Z,993.28
2018-09-23T00:43:39.336Z,993.26
2018-09-23T00:44:39.340Z,993.27
2018-09-23T00:45:39.313Z,993.27
2018-09-23T00:46:39.308Z,993.28
2018-09-23T00:47:39.295Z,993.22
2018-09-23T00:48:39.304Z,993.19
2018-09-23T00:49:39.300Z,993.17
2018-09-23T00:50:39.262Z,993.21
2018-09-23T00:51:39.259Z,993.11
2018-09-23T00:52:39.242Z,993.09
2018-09-23T00:53:39.234Z,993.07
2018-09-23T00:54:39.245Z,993.04
2018-09-23T00:55:39.222Z,992.99
2018-09-23T00:56:39.197Z,992.96
2018-09-23T00:57:39.187Z,992.96
2018-09-23T00:58:39.175Z,992.93
2018-09-23T00:59:39.164Z,992.90
2018-09-23T01:00:39.198Z,992.86
2018-09-23T01:01:39.147Z,992.88
2018-09-23T01:02:39.132Z,992.83
2018-09-23T01:03:39.120Z,992.76
2018-09-23T01:04:39.110Z,992.75
2018-09-23T01:05:39.120Z,992.82
2018-09-23T01:06:39.097Z,992.77
2018-09-23T01:07:39.099Z,992.70
2018-09-23T01:08:39.071Z,992.66
2018-09-23T01:09:39.061Z,992.61
2018-09-23T01:10:39.070Z,992.56
2018-09-23T01:11:39.041Z,992.58
2018-09-23T01:12:39.029Z,992.52
2018-09-23T01:13:39.037Z,992.45
2018-09-23T01:14:39.009Z,992.47
2018-09-23T01:15:38.996Z,992.47
2018-09-23T01:16:38.999Z,992.47
2018-09-23T01:17:39.003Z,992.43
2018-09-23T01:18:38.966Z,992.44
2018-09-23T01:19:38.954Z,992.40
2018-09-23T01:20:38.968Z,992.36
2018-09-23T01:21:38.944Z,992.41
2018-09-23T01:22:38.920Z,992.49
2018-09-23T01:23:38.909Z,992.42
2018-09-23T01:24:38.895Z,992.47
2018-09-23T01:25:38.891Z,992.42
2018-09-23T01:26:38.922Z,992.55
2018-09-23T01:27:38.865Z,992.55
2018-09-23T01:28:38.861Z,992.54
2018-09-23T01:29:38.839Z,992.61
2018-09-23T01:30:38.832Z,992.73
2018-09-23T01:31:38.839Z,992.78
2018-09-23T01:32:38.843Z,992.78
2018-09-23T01:33:38.811Z,992.78
2018-09-23T01:34:38.783Z,992.75
2018-09-23T01:35:38.778Z,992.72
2018-09-23T01:36:38.779Z,992.64
2018-09-23T01:37:38.752Z,992.61
2018-09-23T01:38:38.775Z,992.58
2018-09-23T01:39:38.738Z,992.57
2018-09-23T01:40:38.720Z,992.49
2018-09-23T01:41:38.725Z,992.48
2018-09-23T01:42:38.698Z,992.44
2018-09-23T01:43:38.689Z,992.38
2018-09-23T01:44:38.721Z,992.34
2018-09-23T01:45:38.666Z,992.37
2018-09-23T01:46:38.668Z,992.37
2018-09-23T01:47:38.647Z,992.36
2018-09-23T01:48:38.634Z,992.31
2018-09-23T01:49:38.626Z,992.33
2018-09-23T01:50:38.651Z,992.27
2018-09-23T01:51:38.619Z,992.31
2018-09-23T01:52:38.592Z,992.26
2018-09-23T01:53:38.577Z,992.30
2018-09-23T01:54:38.569Z,992.27
2018-09-23T01:55:38.563Z,992.21
2018-09-23T01:56:38.593Z,992.23
2018-09-23T01:57:38.550Z,992.26
2018-09-23T01:58:38.525Z,992.18
2018-09-23T01:59:38.517Z,992.24
2018-09-23T02:00:38.503Z,992.23
2018-09-23T02:01:38.495Z,992.16
2018-09-23T02:02:38.534Z,992.16
2018-09-23T02:03:38.472Z,992.19
2018-09-23T02:04:38.463Z,992.18
2018-09-23T02:05:38.452Z,992.13
2018-09-23T02:06:38.445Z,992.08
2018-09-23T02:07:38.443Z,992.07
2018-09-23T02:08:38.446Z,992.08
2018-09-23T02:09:38.426Z,992.09
2018-09-23T02:10:38.398Z,992.16
2018-09-23T02:11:38.386Z,992.02
2018-09-23T02:12:38.403Z,992.07
2018-09-23T02:13:38.365Z,992.12
2018-09-23T02:14:38.382Z,992.09
2018-09-23T02:15:38.346Z,992.01
2018-09-23T02:16:38.334Z,992.04
2018-09-23T02:17:38.339Z,992.05
2018-09-23T02:18:38.321Z,992.03
2018-09-23T02:19:38.307Z,992.05
2018-09-23T02:20:38.285Z,991.97
2018-09-23T02:21:38.307Z,991.95
2018-09-23T02:22:38.280Z,992.09
2018-09-23T02:23:38.254Z,992.12
2018-09-23T02:24:38.279Z,992.02
2018-09-23T02:25:38.234Z,992.04
2018-09-23T02:26:38.219Z,992.03
2018-09-23T02:27:38.277Z,992.01
2018-09-23T02:28:38.201Z,992.07
2018-09-23T02:29:38.198Z,992.02
2018-09-23T02:30:38.182Z,991.95
2018-09-23T02:31:38.186Z,991.97
2018-09-23T02:32:38.171Z,991.99
2018-09-23T02:33:38.153Z,992.00
2018-09-23T02:34:38.161Z,991.96
2018-09-23T02:35:38.135Z,991.99
2018-09-23T02:36:38.120Z,991.93
2018-09-23T02:37:38.178Z,991.92
2018-09-23T02:38:38.097Z,992.00
2018-09-23T02:39:38.084Z,991.91
2018-09-23T02:40:38.078Z,991.93
2018-09-23T02:41:38.065Z,991.85
2018-09-23T02:42:38.089Z,991.87
2018-09-23T02:43:38.064Z,991.82
2018-09-23T02:44:38.031Z,991.87
2018-09-23T02:45:38.074Z,991.87
2018-09-23T02:46:38.013Z,991.89
2018-09-23T02:47:38.013Z,991.84
2018-09-23T02:48:38.023Z,991.91
2018-09-23T02:49:38.006Z,991.91
2018-09-23T02:50:37.969Z,991.87
2018-09-23T02:51:38.037Z,991.88
2018-09-23T02:52:37.944Z,991.89
2018-09-23T02:53:37.955Z,991.82
2018-09-23T02:54:37.931Z,991.83
2018-09-23T02:55:37.953Z,991.78
2018-09-23T02:56:37.904Z,991.90
2018-09-23T02:57:37.901Z,991.70
2018-09-23T02:58:37.899Z,991.79
2018-09-23T02:59:37.877Z,991.77
2018-09-23T03:00:37.862Z,991.79
2018-09-23T03:01:37.893Z,991.85
2018-09-23T03:02:37.840Z,991.84
2018-09-23T03:03:37.847Z,991.91
2018-09-23T03:04:37.823Z,991.87
2018-09-23T03:05:37.814Z,991.85
2018-09-23T03:06:37.801Z,991.85
2018-09-23T03:07:37.852Z,991.84
2018-09-23T03:08:37.792Z,991.61
2018-09-23T03:09:37.774Z,991.77
2018-09-23T03:10:37.761Z,991.80
2018-09-23T03:11:37.749Z,991.81
2018-09-23T03:12:37.740Z,991.89
2018-09-23T03:13:37.770Z,991.81
2018-09-23T03:14:37.718Z,991.90
2018-09-23T03:15:37.705Z,991.88
2018-09-23T03:16:37.694Z,991.93
2018-09-23T03:17:37.681Z,991.89
2018-09-23T03:18:37.697Z,991.89
2018-09-23T03:19:37.685Z,991.86
2018-09-23T03:20:37.650Z,991.93
2018-09-23T03:21:37.637Z,991.93
2018-09-23T03:22:37.628Z,991.84
2018-09-23T03:23:37.615Z,991.93
2018-09-23T03:24:37.628Z,991.87
2018-09-23T03:25:37.619Z,991.88
2018-09-23T03:26:37.585Z,991.89
2018-09-23T03:27:37.574Z,991.92
2018-09-23T03:28:37.564Z,991.89
2018-09-23T03:29:37.565Z,991.86
2018-09-23T03:30:37.552Z,991.93
2018-09-23T03:31:37.571Z,991.90
2018-09-23T03:32:37.521Z,991.87
2018-09-23T03:33:37.529Z,991.93
2018-09-23T03:34:37.512Z,991.84
2018-09-23T03:35:37.489Z,992.00
2018-09-23T03:36:37.480Z,991.87
2018-09-23T03:37:37.497Z,991.91
2018-09-23T03:38:37.463Z,991.95
2018-09-23T03:39:37.467Z,991.89
2018-09-23T03:40:37.437Z,991.87
2018-09-23T03:41:37.431Z,991.88
2018-09-23T03:42:37.422Z,991.89
2018-09-23T03:43:37.433Z,991.91
2018-09-23T03:44:37.408Z,991.90
2018-09-23T03:45:37.383Z,991.85
2018-09-23T03:46:37.372Z,991.88
2018-09-23T03:47:37.361Z,991.87
2018-09-23T03:48:37.352Z,991.86
2018-09-23T03:49:37.383Z,991.87
2018-09-23T03:50:37.332Z,991.87
2018-09-23T03:51:37.322Z,991.82
2018-09-23T03:52:37.306Z,991.77
2018-09-23T03:53:37.316Z,991.70
2018-09-23T03:54:37.306Z,991.78
2018-09-23T03:55:37.330Z,991.75
2018-09-23T03:56:37.270Z,991.75
2018-09-23T03:57:37.253Z,991.78
2018-09-23T03:58:37.246Z,991.84
2018-09-23T03:59:37.246Z,991.84
2018-09-23T04:00:37.223Z,991.81
2018-09-23T04:01:37.239Z,991.72
2018-09-23T04:02:37.204Z,991.71
2018-09-23T04:03:37.191Z,991.73
2018-09-23T04:04:37.198Z,991.76
2018-09-23T04:05:37.174Z,991.67
2018-09-23T04:06:37.158Z,991.67
2018-09-23T04:07:37.186Z,991.73
2018-09-23T04:08:37.137Z,991.60
2018-09-23T04:09:37.142Z,991.66
2018-09-23T04:10:37.115Z,991.68
2018-09-23T04:11:37.104Z,991.60
2018-09-23T04:12:37.094Z,991.59
2018-09-23T04:13:37.152Z,991.55
2018-09-23T04:14:37.086Z,991.52
2018-09-23T04:15:37.063Z,991.53
2018-09-23T04:16:37.050Z,991.61
2018-09-23T04:17:37.042Z,991.51
2018-09-23T04:18:37.029Z,991.56
2018-09-23T04:19:37.072Z,991.59
2018-09-23T04:20:37.006Z,991.63
2018-09-23T04:21:36.997Z,991.52
2018-09-23T04:22:36.987Z,991.41
2018-09-23T04:23:36.975Z,991.34
2018-09-23T04:24:36.979Z,991.33
2018-09-23T04:25:37.011Z,991.43
2018-09-23T04:26:36.940Z,991.45
2018-09-23T04:27:36.932Z,991.43
2018-09-23T04:28:36.923Z,991.44
2018-09-23T04:29:36.929Z,991.43
2018-09-23T04:30:36.897Z,991.42
2018-09-23T04:31:37.000Z,991.39
2018-09-23T04:32:36.879Z,991.37
2018-09-23T04:33:36.869Z,991.35
2018-09-23T04:34:36.874Z,991.35
2018-09-23T04:35:36.849Z,991.32
2018-09-23T04:36:36.838Z,991.33
2018-09-23T04:37:36.916Z,991.31
2018-09-23T04:38:36.830Z,991.33
2018-09-23T04:39:36.816Z,991.30
2018-09-23T04:40:36.799Z,991.29
2018-09-23T04:41:36.780Z,991.28
2018-09-23T04:42:36.773Z,991.31
2018-09-23T04:43:36.790Z,991.34
2018-09-23T04:44:36.764Z,991.34
2018-09-23T04:45:36.735Z,991.40
2018-09-23T04:46:36.724Z,991.42
2018-09-23T04:47:36.714Z,991.45
2018-09-23T04:48:36.702Z,991.43
2018-09-23T04:49:36.732Z,991.45
2018-09-23T04:50:36.679Z,991.44
2018-09-23T04:51:36.682Z,991.51
2018-09-23T04:52:36.660Z,991.48
2018-09-23T04:53:36.646Z,991.50
2018-09-23T04:54:36.696Z,991.47
2018-09-23T04:55:36.657Z,991.50
2018-09-23T04:56:36.617Z,991.44
2018-09-23T04:57:36.604Z,991.45
2018-09-23T04:58:36.591Z,991.41
2018-09-23T04:59:36.615Z,991.46
2018-09-23T05:00:36.568Z,991.41
2018-09-23T05:01:36.590Z,991.38
2018-09-23T05:02:36.545Z,991.33
2018-09-23T05:03:36.537Z,991.31
2018-09-23T05:04:36.527Z,991.36
2018-09-23T05:05:36.528Z,991.44
2018-09-23T05:06:36.501Z,991.40
2018-09-23T05:07:36.525Z,991.42
2018-09-23T05:08:36.572Z,991.28
2018-09-23T05:09:36.474Z,991.29
2018-09-23T05:10:36.510Z,991.32
2018-09-23T05:11:36.450Z,991.27
2018-09-23T05:12:36.443Z,991.24
2018-09-23T05:13:36.453Z,991.28
2018-09-23T05:14:36.415Z,991.22
2018-09-23T05:15:36.417Z,991.26
2018-09-23T05:16:36.392Z,991.22
2018-09-23T05:17:36.382Z,991.21
2018-09-23T05:18:36.371Z,991.20
2018-09-23T05:19:36.384Z,991.30
2018-09-23T05:20:36.361Z,991.22
2018-09-23T05:21:36.349Z,991.17
2018-09-23T05:22:36.326Z,991.37
2018-09-23T05:23:36.319Z,991.21
2018-09-23T05:24:36.304Z,991.19
2018-09-23T05:25:36.336Z,991.20
2018-09-23T05:26:36.281Z,991.12
2018-09-23T05:27:36.270Z,991.04
2018-09-23T05:28:36.283Z,991.02
2018-09-23T05:29:36.250Z,991.03
2018-09-23T05:30:36.268Z,991.01
2018-09-23T05:31:36.265Z,991.08
2018-09-23T05:32:36.216Z,991.09
2018-09-23T05:33:36.220Z,991.10
2018-09-23T05:34:36.195Z,991.05
2018-09-23T05:35:36.198Z,991.09
2018-09-23T05:36:36.211Z,991.11
2018-09-23T05:37:36.165Z,991.14
2018-09-23T05:38:36.152Z,991.15
2018-09-23T05:39:36.140Z,991.10
2018-09-23T05:40:36.143Z,991.10
2018-09-23T05:41:36.124Z,991.09
2018-09-23T05:42:36.137Z,991.00
2018-09-23T05:43:36.101Z,991.00
2018-09-23T05:44:36.087Z,991.05
2018-09-23T05:45:36.089Z,991.08
2018-09-23T05:46:36.070Z,991.08
2018-09-23T05:47:36.051Z,991.05
2018-09-23T05:48:36.073Z,991.17
2018-09-23T05:49:36.054Z,991.09
2018-09-23T05:50:36.039Z,991.11
2018-09-23T05:51:36.009Z,991.09
2018-09-23T05:52:36.000Z,991.05
2018-09-23T05:53:35.992Z,991.15
2018-09-23T05:54:36.019Z,991.13
2018-09-23T05:55:35.982Z,991.16
2018-09-23T05:56:35.956Z,991.16
2018-09-23T05:57:35.945Z,991.16
2018-09-23T05:58:35.935Z,991.17
2018-09-23T05:59:35.929Z,991.17
2018-09-23T06:00:35.955Z,991.19
2018-09-23T06:01:35.904Z,991.22
2018-09-23T06:02:35.892Z,991.30
2018-09-23T06:03:35.885Z,991.28
2018-09-23T06:04:35.878Z,991.24
2018-09-23T06:05:35.886Z,991.23
2018-09-23T06:06:35.867Z,991.28
2018-09-23T06:07:35.834Z,991.28
2018-09-23T06:08:35.827Z,991.25
2018-09-23T06:09:35.815Z,991.21
2018-09-23T06:10:35.806Z,991.24
2018-09-23T06:11:35.809Z,991.29
2018-09-23T06:12:35.898Z,991.32
2018-09-23T06:13:35.772Z,991.28
2018-09-23T06:14:35.759Z,991.25
2018-09-23T06:15:35.789Z,991.21
2018-09-23T06:16:35.757Z,991.30
2018-09-23T06:17:35.731Z,991.35
2018-09-23T06:18:35.807Z,991.40
2018-09-23T06:19:35.764Z,991.30
2018-09-23T06:20:35.695Z,991.37
2018-09-23T06:21:35.704Z,991.44
2018-09-23T06:22:35.678Z,991.40
2018-09-23T06:23:35.674Z,991.48
2018-09-23T06:24:35.658Z,991.44
2018-09-23T06:25:35.642Z,991.40
2018-09-23T06:26:35.690Z,991.37
2018-09-23T06:27:35.615Z,991.34
2018-09-23T06:28:35.619Z,991.39
2018-09-23T06:29:35.597Z,991.40
2018-09-23T06:30:35.593Z,991.42
2018-09-23T06:31:35.595Z,991.45
2018-09-23T06:32:35.590Z,991.49
2018-09-23T06:33:35.551Z,991.48
2018-09-23T06:34:35.544Z,991.39
2018-09-23T06:35:35.535Z,991.32
2018-09-23T06:36:35.528Z,991.26
2018-09-23T06:37:35.514Z,991.26
2018-09-23T06:38:35.520Z,991.38
2018-09-23T06:39:35.489Z,991.36
2018-09-23T06:40:35.475Z,991.37
2018-09-23T06:41:35.489Z,991.41
2018-09-23T06:42:35.448Z,991.38
2018-09-23T06:43:35.438Z,991.43
2018-09-23T06:44:35.459Z,991.34
2018-09-23T06:45:35.439Z,991.34
2018-09-23T06:46:35.409Z,991.33
2018-09-23T06:47:35.412Z,991.35
2018-09-23T06:48:35.387Z,991.43
2018-09-23T06:49:35.374Z,991.46
2018-09-23T06:50:35.392Z,991.41
2018-09-23T06:51:35.354Z,991.39
2018-09-23T06:52:35.353Z,991.40
2018-09-23T06:53:35.330Z,991.43
2018-09-23T06:54:35.319Z,991.48
2018-09-23T06:55:35.311Z,991.55
2018-09-23T06:56:35.334Z,991.49
2018-09-23T06:57:35.327Z,991.48
2018-09-23T06:58:35.276Z,991.46
2018-09-23T06:59:35.262Z,991.50
2018-09-23T07:00:35.280Z,991.49
2018-09-23T07:01:35.243Z,991.51
2018-09-23T07:02:35.243Z,991.47
2018-09-23T07:03:35.250Z,991.48
2018-09-23T07:04:35.259Z,991.42
2018-09-23T07:05:35.199Z,991.52
2018-09-23T07:06:35.183Z,991.50
2018-09-23T07:07:35.195Z,991.45
2018-09-23T07:08:35.164Z,991.46
2018-09-23T07:09:35.153Z,991.50
2018-09-23T07:10:35.222Z,991.48
2018-09-23T07:11:35.132Z,991.47
2018-09-23T07:12:35.136Z,991.35
2018-09-23T07:13:35.139Z,991.41
2018-09-23T07:14:35.101Z,991.39
2018-09-23T07:15:35.087Z,991.36
2018-09-23T07:16:35.169Z,991.38
2018-09-23T07:17:35.081Z,991.40
2018-09-23T07:18:35.065Z,991.34
2018-09-23T07:19:35.046Z,991.35
2018-09-23T07:20:35.032Z,991.30
2018-09-23T07:21:35.024Z,991.29
2018-09-23T07:22:35.025Z,991.37
2018-09-23T07:23:35.086Z,991.31
2018-09-23T07:24:34.997Z,991.31
2018-09-23T07:25:34.997Z,991.31
2018-09-23T07:26:34.978Z,991.40
2018-09-23T07:27:34.983Z,991.44
2018-09-23T07:28:34.950Z,991.42
2018-09-23T07:29:34.945Z,991.36
2018-09-23T07:30:34.966Z,991.29
2018-09-23T07:31:34.923Z,991.32
2018-09-23T07:32:34.956Z,991.34
2018-09-23T07:33:34.895Z,991.37
2018-09-23T07:34:34.887Z,991.36
2018-09-23T07:35:34.878Z,991.41
2018-09-23T07:36:34.923Z,991.44
2018-09-23T07:37:34.858Z,991.34
2018-09-23T07:38:34.865Z,991.41
2018-09-23T07:39:34.850Z,991.40
2018-09-23T07:40:34.857Z,991.38
2018-09-23T07:41:34.820Z,991.34
2018-09-23T07:42:34.801Z,991.34
2018-09-23T07:43:34.827Z,991.35
2018-09-23T07:44:34.775Z,991.46
2018-09-23T07:45:34.772Z,991.35
2018-09-23T07:46:34.770Z,991.35
2018-09-23T07:47:34.748Z,991.33
2018-09-23T07:48:34.783Z,991.30
2018-09-23T07:49:34.724Z,991.29
2018-09-23T07:50:34.706Z,991.28
2018-09-23T07:51:34.738Z,991.30
2018-09-23T07:52:34.722Z,991.34
2018-09-23T07:53:34.695Z,991.32
2018-09-23T07:54:34.672Z,991.38
2018-09-23T07:55:34.717Z,991.35
2018-09-23T07:56:34.715Z,991.35
2018-09-23T07:57:34.643Z,991.32
2018-09-23T07:58:34.720Z,991.35
2018-09-23T07:59:34.612Z,991.28
2018-09-23T08:00:34.601Z,991.29
2018-09-23T08:01:34.588Z,991.33
2018-09-23T08:02:34.581Z,991.34
2018-09-23T08:03:34.690Z,991.33
2018-09-23T08:04:34.609Z,991.36
2018-09-23T08:05:34.547Z,991.34
2018-09-23T08:06:34.533Z,991.41
2018-09-23T08:07:34.525Z,991.40
2018-09-23T08:08:34.532Z,991.35
2018-09-23T08:09:34.501Z,991.36
2018-09-23T08:10:34.532Z,991.38
2018-09-23T08:11:34.481Z,991.40
2018-09-23T08:12:34.567Z,991.41
2018-09-23T08:13:34.572Z,991.38
2018-09-23T08:14:34.947Z,991.45
2018-09-23T08:15:34.450Z,991.41
2018-09-23T08:16:34.470Z,991.37
2018-09-23T08:17:34.414Z,991.35
2018-09-23T08:18:34.409Z,991.42
2018-09-23T08:19:34.485Z,991.37
2018-09-23T08:20:34.451Z,991.37
2018-09-23T08:21:34.377Z,991.36
2018-09-23T08:22:34.420Z,991.41
2018-09-23T08:23:34.352Z,991.42
2018-09-23T08:24:34.355Z,991.47
2018-09-23T08:25:34.370Z,991.46
2018-09-23T08:26:34.358Z,991.41
2018-09-23T08:27:34.345Z,991.40
2018-09-23T08:28:34.304Z,991.30
2018-09-23T08:29:34.305Z,991.34
2018-09-23T08:30:34.282Z,991.34
2018-09-23T08:31:34.311Z,991.40
2018-09-23T08:32:34.265Z,991.49
2018-09-23T08:33:34.243Z,991.41
2018-09-23T08:34:34.295Z,991.29
2018-09-23T08:35:34.223Z,991.29
2018-09-23T08:36:34.213Z,991.33
2018-09-23T08:37:34.207Z,991.35
2018-09-23T08:38:34.196Z,991.33
2018-09-23T08:39:34.193Z,991.37
2018-09-23T08:40:34.167Z,991.34
2018-09-23T08:41:34.176Z,991.33
2018-09-23T08:42:34.157Z,991.24
2018-09-23T08:43:34.133Z,991.43
2018-09-23T08:44:34.138Z,991.29
2018-09-23T08:45:34.112Z,991.33
2018-09-23T08:46:34.103Z,991.23
2018-09-23T08:47:34.125Z,991.23
2018-09-23T08:48:34.086Z,991.22
2018-09-23T08:49:34.099Z,991.25
2018-09-23T08:50:34.057Z,991.26
2018-09-23T08:51:34.070Z,991.27
2018-09-23T08:52:34.036Z,991.29
2018-09-23T08:53:34.048Z,991.31
2018-09-23T08:54:34.014Z,991.20
2018-09-23T08:55:34.050Z,991.18
2018-09-23T08:56:33.994Z,991.42
2018-09-23T08:57:33.991Z,991.21
2018-09-23T08:58:33.970Z,991.05
2018-09-23T08:59:33.982Z,991.03
2018-09-23T09:00:33.968Z,991.02
2018-09-23T09:01:33.941Z,991.09
2018-09-23T09:02:33.932Z,990.96
2018-09-23T09:03:33.980Z,991.06
2018-09-23T09:04:33.910Z,991.34
2018-09-23T09:05:33.939Z,991.09
2018-09-23T09:06:33.885Z,991.13
2018-09-23T09:07:33.897Z,991.25
2018-09-23T09:08:33.863Z,990.97
2018-09-23T09:09:33.855Z,991.06
2018-09-23T09:10:33.880Z,991.10
2018-09-23T09:11:33.880Z,990.95
2018-09-23T09:12:33.821Z,990.89
2018-09-23T09:13:33.842Z,991.03
2018-09-23T09:14:33.802Z,991.00
2018-09-23T09:15:33.804Z,991.01
2018-09-23T09:16:33.778Z,990.98
2018-09-23T09:17:33.781Z,991.09
2018-09-23T09:18:33.857Z,991.05
2018-09-23T09:19:33.746Z,991.13
2018-09-23T09:20:33.751Z,991.06
2018-09-23T09:21:33.724Z,991.09
2018-09-23T09:22:33.716Z,991.06
2018-09-23T09:23:33.716Z,991.08
2018-09-23T09:24:33.691Z,991.05
2018-09-23T09:25:33.694Z,991.10
2018-09-23T09:26:33.770Z,991.02
2018-09-23T09:27:33.660Z,991.00
2018-09-23T09:28:33.652Z,991.05
2018-09-23T09:29:33.661Z,991.03
2018-09-23T09:30:33.640Z,990.97
2018-09-23T09:31:33.619Z,990.95
2018-09-23T09:32:33.607Z,990.98
2018-09-23T09:33:33.598Z,991.10
2018-09-23T09:34:33.587Z,990.99
2018-09-23T09:35:33.614Z,991.11
2018-09-23T09:36:33.569Z,991.06
2018-09-23T09:37:33.559Z,991.09
2018-09-23T09:38:33.564Z,991.12
2018-09-23T09:39:33.536Z,991.05
2018-09-23T09:40:33.538Z,991.07
2018-09-23T09:41:33.745Z,991.01
2018-09-23T09:42:33.504Z,991.06
2018-09-23T09:43:33.491Z,990.98
2018-09-23T09:44:33.486Z,990.96
2018-09-23T09:45:33.488Z,990.99
2018-09-23T09:46:33.472Z,990.99
2018-09-23T09:47:33.465Z,990.92
2018-09-23T09:48:33.437Z,990.99
2018-09-23T09:49:33.436Z,991.06
2018-09-23T09:50:33.440Z,991.01
2018-09-23T09:51:33.405Z,990.99
2018-09-23T09:52:33.407Z,991.01
2018-09-23T09:53:33.471Z,990.96
2018-09-23T09:54:33.377Z,990.96
2018-09-23T09:55:33.363Z,990.98
2018-09-23T09:56:33.364Z,990.96
2018-09-23T09:57:33.340Z,990.97
2018-09-23T09:58:33.329Z,990.89
2018-09-23T09:59:33.343Z,990.98
2018-09-23T10:00:33.308Z,990.99
2018-09-23T10:01:33.312Z,990.99
2018-09-23T10:02:33.287Z,990.98
2018-09-23T10:03:33.275Z,990.91
2018-09-23T10:04:33.265Z,990.91
2018-09-23T10:05:33.285Z,990.89
2018-09-23T10:06:33.257Z,990.94
2018-09-23T10:07:33.234Z,990.88
2018-09-23T10:08:33.221Z,990.81
2018-09-23T10:09:33.210Z,990.82
2018-09-23T10:10:33.199Z,990.84
2018-09-23T10:11:33.249Z,990.80
2018-09-23T10:12:33.189Z,990.73
2018-09-23T10:13:33.172Z,990.71
2018-09-23T10:14:33.157Z,990.71
2018-09-23T10:15:33.146Z,990.71
2018-09-23T10:16:33.154Z,990.71
2018-09-23T10:17:33.160Z,990.71
2018-09-23T10:18:33.117Z,990.65
2018-09-23T10:19:33.108Z,990.62
2018-09-23T10:20:33.097Z,990.62
2018-09-23T10:21:33.096Z,990.55
2018-09-23T10:22:33.135Z,990.57
2018-09-23T10:23:33.220Z,990.50
2018-09-23T10:24:33.052Z,990.53
2018-09-23T10:25:33.040Z,990.51
2018-09-23T10:26:33.043Z,990.42
2018-09-23T10:27:33.018Z,990.51
2018-09-23T10:28:33.058Z,990.38
2018-09-23T10:29:33.022Z,990.34
2018-09-23T10:30:32.987Z,990.45
2018-09-23T10:31:33.043Z,990.41
2018-09-23T10:32:32.966Z,990.29
2018-09-23T10:33:32.958Z,990.39
2018-09-23T10:34:32.948Z,990.38
2018-09-23T10:35:32.968Z,990.33
2018-09-23T10:36:32.955Z,990.30
2018-09-23T10:37:32.911Z,990.34
2018-09-23T10:38:32.899Z,990.25
2018-09-23T10:39:32.892Z,990.31
2018-09-23T10:40:32.879Z,990.24
2018-09-23T10:41:33.005Z,990.34
2018-09-23T10:42:32.857Z,990.26
2018-09-23T10:43:32.845Z,990.21
2018-09-23T10:44:32.871Z,990.36
2018-09-23T10:45:32.828Z,990.10
2018-09-23T10:46:32.841Z,990.26
2018-09-23T10:47:32.902Z,990.32
2018-09-23T10:48:32.793Z,990.29
2018-09-23T10:49:32.782Z,990.19
2018-09-23T10:50:32.771Z,990.21
2018-09-23T10:51:32.768Z,990.26
2018-09-23T10:52:32.762Z,990.32
2018-09-23T10:53:32.777Z,990.24
2018-09-23T10:54:32.731Z,990.25
2018-09-23T10:55:32.770Z,990.22
2018-09-23T10:56:32.708Z,990.21
2018-09-23T10:57:32.713Z,990.19
2018-09-23T10:58:32.703Z,990.12
2018-09-23T10:59:32.773Z,990.12
2018-09-23T11:00:32.666Z,990.09
2018-09-23T11:01:32.653Z,990.13
2018-09-23T11:02:32.658Z,990.06
2018-09-23T11:03:32.644Z,990.01
2018-09-23T11:04:32.628Z,990.00
2018-09-23T11:05:32.627Z,989.98
2018-09-23T11:06:32.600Z,989.96
2018-09-23T11:07:32.658Z,989.97
2018-09-23T11:08:32.581Z,989.89
2018-09-23T11:09:32.572Z,990.01
2018-09-23T11:10:32.558Z,989.94
2018-09-23T11:11:32.573Z,989.85
2018-09-23T11:12:32.555Z,989.79
2018-09-23T11:13:32.527Z,989.77
2018-09-23T11:14:32.514Z,990.15
2018-09-23T11:15:32.508Z,989.69
2018-09-23T11:16:32.496Z,989.60
2018-09-23T11:17:32.529Z,989.51
2018-09-23T11:18:32.472Z,989.79
2018-09-23T11:19:32.462Z,989.75
2018-09-23T11:20:32.451Z,989.31
2018-09-23T11:21:32.443Z,989.77
2018-09-23T11:22:32.442Z,989.62
2018-09-23T11:23:32.488Z,989.56
2018-09-23T11:24:32.418Z,989.30
2018-09-23T11:25:32.396Z,989.20
2018-09-23T11:26:32.386Z,989.24
2018-09-23T11:27:32.390Z,989.50
2018-09-23T11:28:32.386Z,989.31
2018-09-23T11:29:32.354Z,989.23
2018-09-23T11:30:32.359Z,989.26
2018-09-23T11:31:32.333Z,989.43
2018-09-23T11:32:32.344Z,989.15
2018-09-23T11:33:32.314Z,989.27
2018-09-23T11:34:32.364Z,989.51
2018-09-23T11:35:32.290Z,989.07
2018-09-23T11:36:32.285Z,989.09
2018-09-23T11:37:32.287Z,989.15
2018-09-23T11:38:32.258Z,989.31
2018-09-23T11:39:32.249Z,989.17
2018-09-23T11:40:32.286Z,989.18
2018-09-23T11:41:32.227Z,989.45
2018-09-23T11:42:32.234Z,989.34
2018-09-23T11:43:32.205Z,989.34
2018-09-23T11:44:32.195Z,989.24
2018-09-23T11:45:32.185Z,989.29
2018-09-23T11:46:32.192Z,989.06
2018-09-23T11:47:32.178Z,989.17
2018-09-23T11:48:32.153Z,989.07
2018-09-23T11:49:32.141Z,989.07
2018-09-23T11:50:32.134Z,989.07
2018-09-23T11:51:32.121Z,989.16
2018-09-23T11:52:32.145Z,989.27
2018-09-23T11:53:32.102Z,989.12
2018-09-23T11:54:32.089Z,989.01
2018-09-23T11:55:32.081Z,989.04
2018-09-23T11:56:32.068Z,989.09
2018-09-23T11:57:32.088Z,988.98
2018-09-23T11:58:32.071Z,989.26
2018-09-23T11:59:32.038Z,989.08
2018-09-23T12:00:32.028Z,989.04
2018-09-23T12:01:32.025Z,989.07
2018-09-23T12:02:32.049Z,989.16
2018-09-23T12:03:32.026Z,989.16
2018-09-23T12:04:32.120Z,989.13
2018-09-23T12:05:32.108Z,989.01
2018-09-23T12:06:31.961Z,989.01
2018-09-23T12:07:31.950Z,989.17
2018-09-23T12:08:31.976Z,989.11
2018-09-23T12:09:31.932Z,989.23
2018-09-23T12:10:31.928Z,989.14
2018-09-23T12:11:31.923Z,989.12
2018-09-23T12:12:31.898Z,989.03
2018-09-23T12:13:31.901Z,989.04
2018-09-23T12:14:31.878Z,988.88
2018-09-23T12:15:31.871Z,988.96
2018-09-23T12:16:31.854Z,988.96
2018-09-23T12:17:31.866Z,988.97
2018-09-23T12:18:31.850Z,988.98
2018-09-23T12:19:31.825Z,989.02
2018-09-23T12:20:31.818Z,988.95
2018-09-23T12:21:31.807Z,988.95
2018-09-23T12:22:31.793Z,988.98
2018-09-23T12:23:31.825Z,988.90
2018-09-23T12:24:31.772Z,989.07
2018-09-23T12:25:31.832Z,988.89
2018-09-23T12:26:31.756Z,988.88
2018-09-23T12:27:31.742Z,988.96
2018-09-23T12:28:31.745Z,989.01